x

West Santa Barbara 38 Nm West Of Santa Barbara, Ca (46054) Wave Buoy

8:50 - Tue 23rd Sep 2014 All times are PDT. -7 hours from GMT.

  • Sig Wave height 4.3ft
  • Swell Direction
  • Peak Period 9s
  • Average Period 5s
  • Wind
    22mph, 27mph gusts
  • Sea Temp 64°f
  • Air Temp 63°f
  • Sea Pressure 1012.1mb
  • West Santa Barbara  38 Nm West Of Santa Barbara, Ca
  • West Santa Barbara  38 Nm West Of Santa Barbara, Ca

More Historic Weather Station data

Upgrade to MSW Pro to gain access to the past 30 days of data for over 8000 Wavebouys and Weather Stations around the globe.

Join Pro

Comparision Forecast

View Surf forecast
   
mar. 09/23 8:50 4.5ft 9s 5s 22 27 mph 1012.1mb 64f 63f
7:50 4ft 9s 5s 22 29 mph 1011.8mb 64f 63f
6:50 4.5ft 9s 5s 22 27 mph 1011.8mb 65f 63f
5:50 4.5ft 11s 5s 22 27 mph 1011.9mb 65f 64f
4:50 3.5ft 10s 5s 20 27 mph 1012.3mb 65f 64f
3:50 3.5ft 10s 5s 20 25 mph 1012.8mb 65f 64f
2:50 4ft 10s 5s 18 22 mph 1013.5mb 65f 64f
1:50 4ft 11s 6s 18 20 mph 1014.2mb 64f 63f
12:50 4.5ft 10s 6s 13 18 mph 1014.8mb 64f 63f
10:50 4ft 11s 6s 16 18 mph 1015.2mb 64f 63f
9:50 4.5ft 10s 6s 16 18 mph 1015mb 64f 62f
8:50 4ft 11s 6s 18 20 mph 1014.6mb 64f 62f
7:50 4ft 11s 5s 16 18 mph 1014.2mb 63f 63f
6:50 4ft 11s 5s 20 22 mph 1013.8mb 63f 63f
5:50 3.5ft 11s 5s 20 25 mph 1013.3mb 63f 63f
4:50 3.5ft 11s 5s 18 22 mph 1013.1mb 63f 63f
3:50 4ft 10s 5s 18 22 mph 1012.9mb 64f 63f
2:50 4ft 12s 5s 20 25 mph 1012.9mb 64f 63f
12:50 4.5ft 11s 6s 20 25 mph 1012.6mb 64f 63f
lun. 09/22 11:50 4.5ft 11s 6s 20 22 mph 1012.9mb 64f 63f
10:50 4.5ft 11s 6s 20 25 mph 1013mb 64f 63f
9:50 4.5ft 11s 6s 18 22 mph 1013.1mb 64f 63f
8:50 4.5ft 11s 5s 20 22 mph 1013mb 64f 64f
7:50 5ft 11s 5s 20 25 mph 1012.9mb 64f 63f
6:50 5ft 12s 5s 22 25 mph 1012.4mb 63f 63f
5:50 4.5ft 12s 5s 20 29 mph 1012.7mb 63f 64f
4:50 5ft 11s 6s 20 25 mph 1012.9mb 63f 64f
3:50 5ft 10s 5s 22 27 mph 1013mb 63f 64f
2:50 4.5ft 12s 6s 20 25 mph 1013.5mb 62f 63f
1:50 4.5ft 10s 6s 20 25 mph 1014.2mb 63f 63f
12:50 4.5ft 10s 6s 18 22 mph 1014.9mb 64f 63f
11:50 4.5ft 11s 6s 18 22 mph 1015.3mb 64f 63f
10:50 4.5ft 11s 6s 18 22 mph 1015.4mb 64f 63f
9:50 4.5ft 11s 6s 18 22 mph 1014.8mb 64f 63f
8:50 4.5ft 11s 6s 20 25 mph 1014.5mb 64f 63f
7:50 4.5ft 10s 7s 20 25 mph 1014.2mb 64f 63f
6:50 4.5ft 11s 6s 18 22 mph 1014.1mb 64f 63f
5:50 4ft 11s 6s 20 22 mph 1013.7mb 64f 63f
4:50 4ft 11s 6s 16 18 mph 1013.5mb 64f 64f
3:50 5ft 12s 6s 18 20 mph 1013.6mb 64f 64f
2:50 5ft 12s 6s 20 25 mph 1013.6mb 64f 64f
1:50 5ft 11s 6s 18 20 mph 1014mb 64f 64f
12:50 5.5ft 11s 6s 22 25 mph 1013.6mb 64f 64f
dim. 09/21 11:50 5ft 11s 6s 22 25 mph 1013.9mb 63f 64f
10:50 5ft 12s 6s 20 27 mph 1014.1mb 62f 63f
9:50 5ft 11s 6s 20 22 mph 1014.2mb 63f 64f
8:50 5.5ft 12s 6s 20 25 mph 1014.2mb 64f 64f
7:50 6ft 12s 7s 22 27 mph 1013.7mb 65f 64f
6:50 6ft 12s 7s 20 25 mph 1013.4mb 65f 64f
5:50 5.5ft 12s 7s 18 22 mph 1013.6mb 65f 64f
4:50 5.5ft 13s 7s 20 22 mph 1013.6mb 65f 64f
3:50 5.5ft 13s 8s 18 20 mph 1014mb 65f 64f
2:50 5.5ft 13s 8s 18 20 mph 1014.4mb 65f 64f
1:50 5.5ft 12s 8s 16 18 mph 1014.7mb 65f 64f
12:50 5ft 12s 8s 13 16 mph 1015.5mb 65f 64f
11:50 4.5ft 13s 8s 13 16 mph 1015.5mb 65f 64f
10:50 4.5ft 13s 9s 11 13 mph 1015.6mb 65f 64f
9:50 4ft 13s 8s 7 9 mph 1015.7mb 65f 64f
8:50 3.5ft 14s 7s 9 11 mph 1015.3mb 65f 64f
7:50 3.5ft 13s 6s 11 13 mph 1014.7mb 65f 64f
6:50 3.5ft 14s 6s 13 16 mph 1014.1mb 65f 64f
5:50 3.5ft 9s 6s 16 20 mph 1013.6mb 65f 64f
4:50 3.5ft 14s 6s 16 18 mph 1013.2mb 65f 64f
3:50 3.5ft 14s 6s 16 18 mph 1013mb 65f 64f
2:50 3.5ft 7s 6s 16 18 mph 1012.9mb 65f 64f
1:50 3.5ft 14s 6s 16 18 mph 1013.2mb 65f 64f
12:50 3.5ft 8s 6s 16 18 mph 1013.2mb 65f 64f
sam. 09/20 11:50 3.5ft 7s 5s 16 18 mph 1013.5mb 65f 64f
10:50 3.5ft 14s 6s 16 18 mph 1013.7mb 65f 65f
9:50 3.5ft 13s 6s 16 20 mph 1013.1mb 65f 65f
8:50 3.5ft 10s 6s 13 18 mph 1012.7mb 65f 64f
7:50 3.5ft 10s 6s 16 20 mph 1012.2mb 65f 64f
6:50 3.5ft 9s 7s 16 20 mph 1011.8mb 65f 64f
5:50 3.5ft 10s 7s 13 16 mph 1011.8mb 66f 64f
4:50 3.5ft 9s 7s 11
mph
1011.9mb 65f 64f
3:50 3.5ft 10s 7s 11
mph
1012.3mb 65f 64f
2:50 3.5ft 13s 7s 9 11 mph 1012.6mb 65f 64f
1:50 3.5ft 10s 8s 7 9 mph 1013.2mb 65f 64f
12:50 4ft 15s 8s 9
mph
1013.8mb 65f 64f
11:50 3.5ft 11s 7s 9 11 mph 1014mb 65f 63f
10:50 4ft 10s 7s 4 7 mph 1014.2mb 65f 64f
9:50 4ft 10s 7s 9
mph
1013.8mb 64f 63f
8:50 3.5ft 10s 7s 11
mph
1013.3mb 64f 63f
7:50 4ft 9s 7s 13 16 mph 1012.7mb 64f 62f
6:50 4.5ft 10s 7s 13 16 mph 1011.9mb 64f 62f
5:50 4.5ft 10s 7s 13 18 mph 1011.4mb 64f 62f